sensor_id;sensor_type;location;lat;lon;timestamp;P1;durP1;ratioP1;P2;durP2;ratioP2
68744;SDS011;66104;45.456;11.064;2022-12-29T00:00:14;19.20;;;12.60;;
68744;SDS011;66104;45.456;11.064;2022-12-29T00:02:53;22.10;;;13.20;;
68744;SDS011;66104;45.456;11.064;2022-12-29T00:05:31;21.40;;;12.90;;
68744;SDS011;66104;45.456;11.064;2022-12-29T00:08:08;19.30;;;12.30;;
68744;SDS011;66104;45.456;11.064;2022-12-29T00:10:45;21.10;;;12.40;;
68744;SDS011;66104;45.456;11.064;2022-12-29T00:13:23;18.90;;;12.00;;
68744;SDS011;66104;45.456;11.064;2022-12-29T00:16:12;22.30;;;13.80;;
68744;SDS011;66104;45.456;11.064;2022-12-29T00:18:48;24.60;;;13.60;;
68744;SDS011;66104;45.456;11.064;2022-12-29T00:21:26;43.40;;;24.80;;
68744;SDS011;66104;45.456;11.064;2022-12-29T00:24:20;55.60;;;32.70;;
68744;SDS011;66104;45.456;11.064;2022-12-29T00:27:15;25.70;;;16.30;;
68744;SDS011;66104;45.456;11.064;2022-12-29T00:30:12;33.80;;;19.70;;
68744;SDS011;66104;45.456;11.064;2022-12-29T00:33:12;44.00;;;24.00;;
68744;SDS011;66104;45.456;11.064;2022-12-29T00:36:09;23.10;;;13.90;;
68744;SDS011;66104;45.456;11.064;2022-12-29T00:38:54;20.40;;;10.90;;
68744;SDS011;66104;45.456;11.064;2022-12-29T00:41:51;16.20;;;9.90;;
68744;SDS011;66104;45.456;11.064;2022-12-29T00:44:45;21.20;;;11.80;;
68744;SDS011;66104;45.456;11.064;2022-12-29T00:47:22;17.90;;;11.10;;
68744;SDS011;66104;45.456;11.064;2022-12-29T00:49:58;21.40;;;12.10;;
68744;SDS011;66104;45.456;11.064;2022-12-29T00:52:34;18.00;;;11.90;;
68744;SDS011;66104;45.456;11.064;2022-12-29T00:55:12;16.80;;;10.50;;
68744;SDS011;66104;45.456;11.064;2022-12-29T00:57:49;18.40;;;10.50;;
68744;SDS011;66104;45.456;11.064;2022-12-29T01:00:25;18.00;;;10.10;;
68744;SDS011;66104;45.456;11.064;2022-12-29T01:03:02;16.50;;;10.50;;
68744;SDS011;66104;45.456;11.064;2022-12-29T01:05:39;20.40;;;12.00;;
68744;SDS011;66104;45.456;11.064;2022-12-29T01:08:16;19.30;;;12.80;;
68744;SDS011;66104;45.456;11.064;2022-12-29T01:11:02;26.40;;;12.30;;
68744;SDS011;66104;45.456;11.064;2022-12-29T01:13:40;22.20;;;13.40;;
68744;SDS011;66104;45.456;11.064;2022-12-29T01:16:16;26.40;;;16.10;;
68744;SDS011;66104;45.456;11.064;2022-12-29T01:18:53;25.50;;;14.90;;
68744;SDS011;66104;45.456;11.064;2022-12-29T01:21:30;23.40;;;14.10;;
68744;SDS011;66104;45.456;11.064;2022-12-29T01:24:07;24.10;;;14.30;;
68744;SDS011;66104;45.456;11.064;2022-12-29T01:26:45;23.20;;;13.90;;
68744;SDS011;66104;45.456;11.064;2022-12-29T01:29:21;25.00;;;14.60;;
68744;SDS011;66104;45.456;11.064;2022-12-29T01:31:58;22.60;;;13.70;;
68744;SDS011;66104;45.456;11.064;2022-12-29T01:34:35;22.20;;;12.20;;
68744;SDS011;66104;45.456;11.064;2022-12-29T01:37:12;22.40;;;12.80;;
68744;SDS011;66104;45.456;11.064;2022-12-29T01:39:49;20.90;;;12.00;;
68744;SDS011;66104;45.456;11.064;2022-12-29T01:42:27;20.70;;;12.10;;
68744;SDS011;66104;45.456;11.064;2022-12-29T01:45:07;20.90;;;11.50;;
68744;SDS011;66104;45.456;11.064;2022-12-29T01:47:50;20.70;;;12.90;;
68744;SDS011;66104;45.456;11.064;2022-12-29T01:50:31;22.20;;;12.50;;
68744;SDS011;66104;45.456;11.064;2022-12-29T01:53:15;24.10;;;13.40;;
68744;SDS011;66104;45.456;11.064;2022-12-29T01:55:59;21.80;;;12.40;;
68744;SDS011;66104;45.456;11.064;2022-12-29T01:58:41;20.30;;;11.40;;
68744;SDS011;66104;45.456;11.064;2022-12-29T02:01:23;19.70;;;11.00;;
68744;SDS011;66104;45.456;11.064;2022-12-29T02:04:00;24.40;;;11.30;;
68744;SDS011;66104;45.456;11.064;2022-12-29T02:06:41;16.30;;;10.70;;
68744;SDS011;66104;45.456;11.064;2022-12-29T02:09:22;18.30;;;10.80;;
68744;SDS011;66104;45.456;11.064;2022-12-29T02:11:59;17.80;;;10.20;;
68744;SDS011;66104;45.456;11.064;2022-12-29T02:14:37;27.00;;;12.80;;
68744;SDS011;66104;45.456;11.064;2022-12-29T02:17:20;20.60;;;11.50;;
68744;SDS011;66104;45.456;11.064;2022-12-29T02:26:51;15.00;;;9.60;;
68744;SDS011;66104;45.456;11.064;2022-12-29T02:32:50;19.00;;;9.90;;
68744;SDS011;66104;45.456;11.064;2022-12-29T02:35:38;20.90;;;11.50;;
68744;SDS011;66104;45.456;11.064;2022-12-29T02:38:36;20.60;;;11.60;;
68744;SDS011;66104;45.456;11.064;2022-12-29T02:41:27;18.40;;;10.30;;
68744;SDS011;66104;45.456;11.064;2022-12-29T02:44:14;17.10;;;10.20;;
68744;SDS011;66104;45.456;11.064;2022-12-29T02:47:03;16.80;;;9.40;;
68744;SDS011;66104;45.456;11.064;2022-12-29T02:49:51;16.30;;;10.10;;
68744;SDS011;66104;45.456;11.064;2022-12-29T02:52:34;14.10;;;8.70;;
68744;SDS011;66104;45.456;11.064;2022-12-29T02:55:14;16.40;;;9.00;;
68744;SDS011;66104;45.456;11.064;2022-12-29T02:58:09;18.70;;;10.00;;
68744;SDS011;66104;45.456;11.064;2022-12-29T03:01:01;19.20;;;10.00;;
68744;SDS011;66104;45.456;11.064;2022-12-29T03:04:02;20.30;;;11.40;;
68744;SDS011;66104;45.456;11.064;2022-12-29T03:06:58;22.30;;;11.80;;
68744;SDS011;66104;45.456;11.064;2022-12-29T03:09:47;19.20;;;11.20;;
68744;SDS011;66104;45.456;11.064;2022-12-29T03:12:32;19.80;;;11.20;;
68744;SDS011;66104;45.456;11.064;2022-12-29T03:15:38;20.80;;;12.10;;
68744;SDS011;66104;45.456;11.064;2022-12-29T03:18:44;20.20;;;12.10;;
68744;SDS011;66104;45.456;11.064;2022-12-29T03:21:29;20.30;;;11.50;;
68744;SDS011;66104;45.456;11.064;2022-12-29T03:24:29;20.20;;;11.90;;
68744;SDS011;66104;45.456;11.064;2022-12-29T03:27:13;19.50;;;11.70;;
68744;SDS011;66104;45.456;11.064;2022-12-29T03:29:55;21.20;;;11.50;;
68744;SDS011;66104;45.456;11.064;2022-12-29T03:32:36;80.40;;;27.50;;
68744;SDS011;66104;45.456;11.064;2022-12-29T03:35:18;55.40;;;21.90;;
68744;SDS011;66104;45.456;11.064;2022-12-29T03:38:02;31.90;;;16.00;;
68744;SDS011;66104;45.456;11.064;2022-12-29T03:40:48;21.10;;;12.70;;
68744;SDS011;66104;45.456;11.064;2022-12-29T03:43:31;18.30;;;12.00;;
68744;SDS011;66104;45.456;11.064;2022-12-29T03:46:07;26.10;;;12.50;;
68744;SDS011;66104;45.456;11.064;2022-12-29T03:48:45;21.00;;;12.40;;
68744;SDS011;66104;45.456;11.064;2022-12-29T03:51:22;26.20;;;13.40;;
68744;SDS011;66104;45.456;11.064;2022-12-29T03:54:00;20.70;;;13.20;;
68744;SDS011;66104;45.456;11.064;2022-12-29T03:56:37;22.50;;;12.40;;
68744;SDS011;66104;45.456;11.064;2022-12-29T03:59:14;23.10;;;11.60;;
68744;SDS011;66104;45.456;11.064;2022-12-29T04:01:52;20.40;;;11.70;;
68744;SDS011;66104;45.456;11.064;2022-12-29T04:04:30;19.90;;;11.30;;
68744;SDS011;66104;45.456;11.064;2022-12-29T04:07:06;20.30;;;10.80;;
68744;SDS011;66104;45.456;11.064;2022-12-29T04:09:44;20.20;;;10.70;;
68744;SDS011;66104;45.456;11.064;2022-12-29T04:12:24;19.10;;;10.60;;
68744;SDS011;66104;45.456;11.064;2022-12-29T04:15:01;18.30;;;10.30;;
68744;SDS011;66104;45.456;11.064;2022-12-29T04:17:40;20.60;;;12.00;;
68744;SDS011;66104;45.456;11.064;2022-12-29T04:20:17;23.80;;;13.20;;
68744;SDS011;66104;45.456;11.064;2022-12-29T04:23:11;23.80;;;12.60;;
68744;SDS011;66104;45.456;11.064;2022-12-29T04:25:49;18.70;;;11.80;;
68744;SDS011;66104;45.456;11.064;2022-12-29T04:28:26;19.90;;;12.30;;
68744;SDS011;66104;45.456;11.064;2022-12-29T04:31:22;19.90;;;11.40;;
68744;SDS011;66104;45.456;11.064;2022-12-29T04:33:59;23.10;;;12.00;;
68744;SDS011;66104;45.456;11.064;2022-12-29T04:36:38;18.90;;;11.60;;
68744;SDS011;66104;45.456;11.064;2022-12-29T04:39:15;21.30;;;12.40;;
68744;SDS011;66104;45.456;11.064;2022-12-29T04:41:55;18.30;;;10.90;;
68744;SDS011;66104;45.456;11.064;2022-12-29T04:44:31;18.20;;;10.70;;
68744;SDS011;66104;45.456;11.064;2022-12-29T04:47:18;22.80;;;11.20;;
68744;SDS011;66104;45.456;11.064;2022-12-29T04:50:10;21.10;;;10.40;;
68744;SDS011;66104;45.456;11.064;2022-12-29T04:52:55;20.30;;;11.40;;
68744;SDS011;66104;45.456;11.064;2022-12-29T04:55:32;22.20;;;11.00;;
68744;SDS011;66104;45.456;11.064;2022-12-29T04:58:09;22.50;;;11.70;;
68744;SDS011;66104;45.456;11.064;2022-12-29T05:00:52;21.20;;;12.20;;
68744;SDS011;66104;45.456;11.064;2022-12-29T05:03:32;20.10;;;11.70;;
68744;SDS011;66104;45.456;11.064;2022-12-29T05:06:10;21.70;;;12.10;;
68744;SDS011;66104;45.456;11.064;2022-12-29T05:08:49;19.10;;;11.50;;
68744;SDS011;66104;45.456;11.064;2022-12-29T05:11:25;20.20;;;11.60;;
68744;SDS011;66104;45.456;11.064;2022-12-29T05:14:02;19.50;;;11.40;;
68744;SDS011;66104;45.456;11.064;2022-12-29T05:16:39;24.20;;;11.50;;
68744;SDS011;66104;45.456;11.064;2022-12-29T05:19:16;17.00;;;10.10;;
68744;SDS011;66104;45.456;11.064;2022-12-29T05:21:53;21.60;;;11.20;;
68744;SDS011;66104;45.456;11.064;2022-12-29T05:24:30;20.70;;;12.00;;
68744;SDS011;66104;45.456;11.064;2022-12-29T05:27:07;23.30;;;12.00;;
68744;SDS011;66104;45.456;11.064;2022-12-29T05:30:16;17.70;;;10.80;;
68744;SDS011;66104;45.456;11.064;2022-12-29T05:32:53;17.40;;;10.00;;
68744;SDS011;66104;45.456;11.064;2022-12-29T05:35:29;18.60;;;10.40;;
68744;SDS011;66104;45.456;11.064;2022-12-29T05:38:06;25.50;;;14.40;;
68744;SDS011;66104;45.456;11.064;2022-12-29T05:40:44;29.80;;;15.50;;
68744;SDS011;66104;45.456;11.064;2022-12-29T05:43:41;29.20;;;14.80;;
68744;SDS011;66104;45.456;11.064;2022-12-29T05:46:30;32.10;;;16.50;;
68744;SDS011;66104;45.456;11.064;2022-12-29T05:49:15;25.20;;;13.00;;
68744;SDS011;66104;45.456;11.064;2022-12-29T05:52:10;20.50;;;11.80;;
68744;SDS011;66104;45.456;11.064;2022-12-29T05:54:48;18.40;;;11.10;;
68744;SDS011;66104;45.456;11.064;2022-12-29T05:57:26;20.40;;;11.70;;
68744;SDS011;66104;45.456;11.064;2022-12-29T06:00:16;25.30;;;14.70;;
68744;SDS011;66104;45.456;11.064;2022-12-29T06:02:54;19.80;;;11.80;;
68744;SDS011;66104;45.456;11.064;2022-12-29T06:05:31;18.40;;;12.30;;
68744;SDS011;66104;45.456;11.064;2022-12-29T06:08:08;19.60;;;11.90;;
68744;SDS011;66104;45.456;11.064;2022-12-29T06:10:44;21.00;;;12.10;;
68744;SDS011;66104;45.456;11.064;2022-12-29T06:13:21;18.90;;;11.60;;
68744;SDS011;66104;45.456;11.064;2022-12-29T06:15:57;19.00;;;11.60;;
68744;SDS011;66104;45.456;11.064;2022-12-29T06:18:34;20.40;;;11.50;;
68744;SDS011;66104;45.456;11.064;2022-12-29T06:21:11;21.30;;;13.20;;
68744;SDS011;66104;45.456;11.064;2022-12-29T06:23:49;20.70;;;11.40;;
68744;SDS011;66104;45.456;11.064;2022-12-29T06:26:26;19.10;;;11.50;;
68744;SDS011;66104;45.456;11.064;2022-12-29T06:29:04;20.30;;;11.00;;
68744;SDS011;66104;45.456;11.064;2022-12-29T06:31:41;20.10;;;11.00;;
68744;SDS011;66104;45.456;11.064;2022-12-29T06:34:19;16.60;;;10.60;;
68744;SDS011;66104;45.456;11.064;2022-12-29T06:36:55;16.80;;;10.70;;
68744;SDS011;66104;45.456;11.064;2022-12-29T06:39:32;21.10;;;12.40;;
68744;SDS011;66104;45.456;11.064;2022-12-29T06:42:13;20.40;;;12.00;;
68744;SDS011;66104;45.456;11.064;2022-12-29T06:45:19;18.50;;;11.20;;
68744;SDS011;66104;45.456;11.064;2022-12-29T06:47:55;20.80;;;11.40;;
68744;SDS011;66104;45.456;11.064;2022-12-29T06:50:34;15.70;;;10.70;;
68744;SDS011;66104;45.456;11.064;2022-12-29T06:53:11;16.90;;;10.50;;
68744;SDS011;66104;45.456;11.064;2022-12-29T06:55:48;18.20;;;11.40;;
68744;SDS011;66104;45.456;11.064;2022-12-29T06:58:25;21.80;;;12.20;;
68744;SDS011;66104;45.456;11.064;2022-12-29T07:01:02;20.90;;;11.10;;
68744;SDS011;66104;45.456;11.064;2022-12-29T07:03:39;18.50;;;11.00;;
68744;SDS011;66104;45.456;11.064;2022-12-29T07:06:17;16.10;;;11.40;;
68744;SDS011;66104;45.456;11.064;2022-12-29T07:08:53;18.30;;;11.40;;
68744;SDS011;66104;45.456;11.064;2022-12-29T07:11:29;18.00;;;11.70;;
68744;SDS011;66104;45.456;11.064;2022-12-29T07:14:06;20.70;;;13.60;;
68744;SDS011;66104;45.456;11.064;2022-12-29T07:16:44;23.90;;;13.30;;
68744;SDS011;66104;45.456;11.064;2022-12-29T07:19:21;21.80;;;13.40;;
68744;SDS011;66104;45.456;11.064;2022-12-29T07:21:58;20.50;;;13.30;;
68744;SDS011;66104;45.456;11.064;2022-12-29T07:24:35;18.00;;;12.00;;
68744;SDS011;66104;45.456;11.064;2022-12-29T07:27:11;25.00;;;15.80;;
68744;SDS011;66104;45.456;11.064;2022-12-29T07:29:48;26.60;;;15.80;;
68744;SDS011;66104;45.456;11.064;2022-12-29T07:32:25;23.30;;;13.90;;
68744;SDS011;66104;45.456;11.064;2022-12-29T07:35:08;21.10;;;13.70;;
68744;SDS011;66104;45.456;11.064;2022-12-29T07:37:47;24.70;;;15.40;;
68744;SDS011;66104;45.456;11.064;2022-12-29T07:40:24;20.70;;;13.60;;
68744;SDS011;66104;45.456;11.064;2022-12-29T07:43:01;20.90;;;12.70;;
68744;SDS011;66104;45.456;11.064;2022-12-29T07:45:44;23.70;;;14.40;;
68744;SDS011;66104;45.456;11.064;2022-12-29T07:48:20;21.90;;;12.90;;
68744;SDS011;66104;45.456;11.064;2022-12-29T07:50:57;25.50;;;13.70;;
68744;SDS011;66104;45.456;11.064;2022-12-29T07:53:34;19.10;;;11.60;;
68744;SDS011;66104;45.456;11.064;2022-12-29T07:56:10;22.00;;;13.20;;
68744;SDS011;66104;45.456;11.064;2022-12-29T07:58:47;24.00;;;13.50;;
68744;SDS011;66104;45.456;11.064;2022-12-29T08:01:25;21.50;;;13.20;;
68744;SDS011;66104;45.456;11.064;2022-12-29T08:04:02;24.00;;;14.30;;
68744;SDS011;66104;45.456;11.064;2022-12-29T08:06:39;23.20;;;13.80;;
68744;SDS011;66104;45.456;11.064;2022-12-29T08:09:16;21.30;;;13.30;;
68744;SDS011;66104;45.456;11.064;2022-12-29T08:11:55;22.40;;;13.10;;
68744;SDS011;66104;45.456;11.064;2022-12-29T08:14:32;20.40;;;12.50;;
68744;SDS011;66104;45.456;11.064;2022-12-29T08:17:09;22.90;;;13.50;;
68744;SDS011;66104;45.456;11.064;2022-12-29T08:19:45;21.90;;;13.00;;
68744;SDS011;66104;45.456;11.064;2022-12-29T08:22:22;22.80;;;13.10;;
68744;SDS011;66104;45.456;11.064;2022-12-29T08:25:00;21.00;;;12.80;;
68744;SDS011;66104;45.456;11.064;2022-12-29T08:27:36;26.40;;;13.80;;
68744;SDS011;66104;45.456;11.064;2022-12-29T08:30:16;23.00;;;13.80;;
68744;SDS011;66104;45.456;11.064;2022-12-29T08:32:52;23.30;;;14.40;;
68744;SDS011;66104;45.456;11.064;2022-12-29T08:35:29;27.20;;;15.20;;
68744;SDS011;66104;45.456;11.064;2022-12-29T08:38:07;27.00;;;16.70;;
68744;SDS011;66104;45.456;11.064;2022-12-29T08:40:44;28.70;;;16.10;;
68744;SDS011;66104;45.456;11.064;2022-12-29T08:43:21;25.40;;;15.50;;
68744;SDS011;66104;45.456;11.064;2022-12-29T08:45:59;25.10;;;15.20;;
68744;SDS011;66104;45.456;11.064;2022-12-29T08:48:35;27.90;;;15.40;;
68744;SDS011;66104;45.456;11.064;2022-12-29T08:51:12;33.00;;;18.60;;
68744;SDS011;66104;45.456;11.064;2022-12-29T08:53:54;27.80;;;17.40;;
68744;SDS011;66104;45.456;11.064;2022-12-29T08:56:31;24.80;;;15.20;;
68744;SDS011;66104;45.456;11.064;2022-12-29T08:59:09;24.80;;;15.00;;
68744;SDS011;66104;45.456;11.064;2022-12-29T09:01:46;26.70;;;14.00;;
68744;SDS011;66104;45.456;11.064;2022-12-29T09:04:23;26.50;;;14.20;;
68744;SDS011;66104;45.456;11.064;2022-12-29T09:07:01;25.30;;;13.80;;
68744;SDS011;66104;45.456;11.064;2022-12-29T09:09:38;24.20;;;14.80;;
68744;SDS011;66104;45.456;11.064;2022-12-29T09:12:17;24.30;;;14.80;;
68744;SDS011;66104;45.456;11.064;2022-12-29T09:14:54;25.00;;;14.40;;
68744;SDS011;66104;45.456;11.064;2022-12-29T09:17:30;22.60;;;13.90;;
68744;SDS011;66104;45.456;11.064;2022-12-29T09:20:18;23.10;;;14.00;;
68744;SDS011;66104;45.456;11.064;2022-12-29T09:22:56;30.20;;;16.20;;
68744;SDS011;66104;45.456;11.064;2022-12-29T09:25:32;33.90;;;18.80;;
68744;SDS011;66104;45.456;11.064;2022-12-29T09:28:12;28.90;;;16.50;;
68744;SDS011;66104;45.456;11.064;2022-12-29T09:30:49;31.10;;;16.60;;
68744;SDS011;66104;45.456;11.064;2022-12-29T09:33:25;27.00;;;16.00;;
68744;SDS011;66104;45.456;11.064;2022-12-29T09:36:01;28.70;;;16.80;;
68744;SDS011;66104;45.456;11.064;2022-12-29T09:38:38;30.10;;;17.20;;
68744;SDS011;66104;45.456;11.064;2022-12-29T09:41:23;27.20;;;15.90;;
68744;SDS011;66104;45.456;11.064;2022-12-29T09:44:12;31.70;;;17.30;;
68744;SDS011;66104;45.456;11.064;2022-12-29T09:46:55;27.00;;;16.20;;
68744;SDS011;66104;45.456;11.064;2022-12-29T09:49:42;25.30;;;15.30;;
68744;SDS011;66104;45.456;11.064;2022-12-29T09:52:23;28.20;;;15.80;;
68744;SDS011;66104;45.456;11.064;2022-12-29T09:55:05;26.00;;;13.30;;
68744;SDS011;66104;45.456;11.064;2022-12-29T09:57:49;16.90;;;11.30;;
68744;SDS011;66104;45.456;11.064;2022-12-29T10:00:41;26.30;;;15.10;;
68744;SDS011;66104;45.456;11.064;2022-12-29T10:03:35;26.80;;;16.10;;
68744;SDS011;66104;45.456;11.064;2022-12-29T10:06:22;25.70;;;14.80;;
68744;SDS011;66104;45.456;11.064;2022-12-29T10:09:06;27.60;;;16.70;;
68744;SDS011;66104;45.456;11.064;2022-12-29T10:12:01;27.80;;;15.10;;
68744;SDS011;66104;45.456;11.064;2022-12-29T10:14:56;27.90;;;15.80;;
68744;SDS011;66104;45.456;11.064;2022-12-29T10:17:45;26.80;;;15.50;;
68744;SDS011;66104;45.456;11.064;2022-12-29T10:20:36;28.70;;;17.20;;
68744;SDS011;66104;45.456;11.064;2022-12-29T10:23:28;27.50;;;16.40;;
68744;SDS011;66104;45.456;11.064;2022-12-29T10:26:14;25.30;;;16.10;;
68744;SDS011;66104;45.456;11.064;2022-12-29T10:28:54;24.60;;;15.70;;
68744;SDS011;66104;45.456;11.064;2022-12-29T10:31:35;24.90;;;14.70;;
68744;SDS011;66104;45.456;11.064;2022-12-29T10:34:22;22.90;;;13.60;;
68744;SDS011;66104;45.456;11.064;2022-12-29T10:37:09;26.70;;;15.90;;
68744;SDS011;66104;45.456;11.064;2022-12-29T10:40:00;27.20;;;15.90;;
68744;SDS011;66104;45.456;11.064;2022-12-29T10:42:52;29.70;;;17.10;;
68744;SDS011;66104;45.456;11.064;2022-12-29T10:45:30;29.30;;;17.90;;
68744;SDS011;66104;45.456;11.064;2022-12-29T10:48:13;26.30;;;16.70;;
68744;SDS011;66104;45.456;11.064;2022-12-29T10:51:02;26.90;;;16.90;;
68744;SDS011;66104;45.456;11.064;2022-12-29T10:53:45;30.10;;;17.90;;
68744;SDS011;66104;45.456;11.064;2022-12-29T10:56:31;29.30;;;17.80;;
68744;SDS011;66104;45.456;11.064;2022-12-29T10:59:16;30.40;;;18.70;;
68744;SDS011;66104;45.456;11.064;2022-12-29T11:02:04;30.90;;;20.50;;
68744;SDS011;66104;45.456;11.064;2022-12-29T11:05:02;34.00;;;21.20;;
68744;SDS011;66104;45.456;11.064;2022-12-29T11:07:57;33.30;;;18.50;;
68744;SDS011;66104;45.456;11.064;2022-12-29T11:10:40;30.50;;;18.30;;
68744;SDS011;66104;45.456;11.064;2022-12-29T11:13:18;29.90;;;18.40;;
68744;SDS011;66104;45.456;11.064;2022-12-29T11:16:11;31.50;;;19.60;;
68744;SDS011;66104;45.456;11.064;2022-12-29T11:18:48;30.70;;;19.30;;
68744;SDS011;66104;45.456;11.064;2022-12-29T11:21:33;31.00;;;18.80;;
68744;SDS011;66104;45.456;11.064;2022-12-29T11:24:23;33.60;;;19.80;;
68744;SDS011;66104;45.456;11.064;2022-12-29T11:27:17;35.90;;;20.80;;
68744;SDS011;66104;45.456;11.064;2022-12-29T11:29:55;35.00;;;20.20;;
68744;SDS011;66104;45.456;11.064;2022-12-29T11:32:31;30.70;;;19.00;;
68744;SDS011;66104;45.456;11.064;2022-12-29T11:35:31;27.70;;;18.00;;
68744;SDS011;66104;45.456;11.064;2022-12-29T11:38:19;30.90;;;18.40;;
68744;SDS011;66104;45.456;11.064;2022-12-29T11:41:00;28.40;;;16.90;;
68744;SDS011;66104;45.456;11.064;2022-12-29T11:43:40;27.10;;;17.50;;
68744;SDS011;66104;45.456;11.064;2022-12-29T11:46:19;34.40;;;21.30;;
68744;SDS011;66104;45.456;11.064;2022-12-29T11:48:58;37.80;;;22.00;;
68744;SDS011;66104;45.456;11.064;2022-12-29T11:51:42;35.80;;;20.40;;
68744;SDS011;66104;45.456;11.064;2022-12-29T11:54:21;29.70;;;17.70;;
68744;SDS011;66104;45.456;11.064;2022-12-29T11:57:07;32.30;;;20.40;;
68744;SDS011;66104;45.456;11.064;2022-12-29T11:59:51;34.30;;;20.90;;
68744;SDS011;66104;45.456;11.064;2022-12-29T12:02:38;45.40;;;23.40;;
68744;SDS011;66104;45.456;11.064;2022-12-29T12:08:16;33.70;;;20.60;;
68744;SDS011;66104;45.456;11.064;2022-12-29T12:11:01;42.80;;;26.20;;
68744;SDS011;66104;45.456;11.064;2022-12-29T12:13:51;36.60;;;22.90;;
68744;SDS011;66104;45.456;11.064;2022-12-29T12:16:37;33.50;;;21.10;;
68744;SDS011;66104;45.456;11.064;2022-12-29T12:19:30;35.10;;;22.10;;
68744;SDS011;66104;45.456;11.064;2022-12-29T12:22:16;34.10;;;22.30;;
68744;SDS011;66104;45.456;11.064;2022-12-29T12:25:01;34.00;;;21.90;;
68744;SDS011;66104;45.456;11.064;2022-12-29T12:27:47;30.30;;;19.00;;
68744;SDS011;66104;45.456;11.064;2022-12-29T12:30:29;33.50;;;21.40;;
68744;SDS011;66104;45.456;11.064;2022-12-29T12:33:18;42.10;;;25.70;;
68744;SDS011;66104;45.456;11.064;2022-12-29T12:36:17;39.90;;;25.20;;
68744;SDS011;66104;45.456;11.064;2022-12-29T12:39:16;40.00;;;24.30;;
68744;SDS011;66104;45.456;11.064;2022-12-29T12:42:09;40.40;;;24.80;;
68744;SDS011;66104;45.456;11.064;2022-12-29T12:45:14;38.30;;;23.60;;
68744;SDS011;66104;45.456;11.064;2022-12-29T12:48:25;39.90;;;23.90;;
68744;SDS011;66104;45.456;11.064;2022-12-29T12:51:23;39.70;;;24.20;;
68744;SDS011;66104;45.456;11.064;2022-12-29T12:54:27;38.30;;;21.80;;
68744;SDS011;66104;45.456;11.064;2022-12-29T12:57:21;42.60;;;25.40;;
68744;SDS011;66104;45.456;11.064;2022-12-29T13:00:07;42.40;;;24.70;;
68744;SDS011;66104;45.456;11.064;2022-12-29T13:02:58;41.60;;;24.70;;
68744;SDS011;66104;45.456;11.064;2022-12-29T13:05:54;43.80;;;23.70;;
68744;SDS011;66104;45.456;11.064;2022-12-29T13:08:58;37.90;;;22.70;;
68744;SDS011;66104;45.456;11.064;2022-12-29T13:11:54;41.90;;;23.90;;
68744;SDS011;66104;45.456;11.064;2022-12-29T13:14:51;41.40;;;24.70;;
68744;SDS011;66104;45.456;11.064;2022-12-29T13:17:42;41.80;;;24.20;;
68744;SDS011;66104;45.456;11.064;2022-12-29T13:20:34;47.30;;;27.10;;
68744;SDS011;66104;45.456;11.064;2022-12-29T13:23:22;46.20;;;24.20;;
68744;SDS011;66104;45.456;11.064;2022-12-29T13:26:11;40.20;;;25.70;;
68744;SDS011;66104;45.456;11.064;2022-12-29T13:28:56;38.20;;;24.70;;
68744;SDS011;66104;45.456;11.064;2022-12-29T13:31:52;40.70;;;26.10;;
68744;SDS011;66104;45.456;11.064;2022-12-29T13:34:40;39.80;;;24.60;;
68744;SDS011;66104;45.456;11.064;2022-12-29T13:37:27;52.50;;;28.90;;
68744;SDS011;66104;45.456;11.064;2022-12-29T13:40:16;57.40;;;33.30;;
68744;SDS011;66104;45.456;11.064;2022-12-29T13:42:57;49.50;;;29.30;;
68744;SDS011;66104;45.456;11.064;2022-12-29T13:45:35;43.90;;;27.10;;
68744;SDS011;66104;45.456;11.064;2022-12-29T13:48:19;45.20;;;26.70;;
68744;SDS011;66104;45.456;11.064;2022-12-29T13:51:00;38.20;;;24.90;;
68744;SDS011;66104;45.456;11.064;2022-12-29T13:53:40;37.10;;;24.00;;
68744;SDS011;66104;45.456;11.064;2022-12-29T13:56:35;42.10;;;25.80;;
68744;SDS011;66104;45.456;11.064;2022-12-29T13:59:23;43.60;;;27.30;;
68744;SDS011;66104;45.456;11.064;2022-12-29T14:02:21;47.40;;;27.70;;
68744;SDS011;66104;45.456;11.064;2022-12-29T14:05:29;42.10;;;26.10;;
68744;SDS011;66104;45.456;11.064;2022-12-29T14:08:13;42.00;;;23.40;;
68744;SDS011;66104;45.456;11.064;2022-12-29T14:10:53;41.30;;;24.20;;
68744;SDS011;66104;45.456;11.064;2022-12-29T14:13:30;40.50;;;23.40;;
68744;SDS011;66104;45.456;11.064;2022-12-29T14:16:21;46.40;;;26.20;;
68744;SDS011;66104;45.456;11.064;2022-12-29T14:19:14;48.60;;;27.90;;
68744;SDS011;66104;45.456;11.064;2022-12-29T14:21:56;48.50;;;27.10;;
68744;SDS011;66104;45.456;11.064;2022-12-29T14:24:44;44.30;;;26.20;;
68744;SDS011;66104;45.456;11.064;2022-12-29T14:27:51;41.20;;;26.10;;
68744;SDS011;66104;45.456;11.064;2022-12-29T14:31:00;43.10;;;25.70;;
68744;SDS011;66104;45.456;11.064;2022-12-29T14:33:38;43.80;;;24.80;;
68744;SDS011;66104;45.456;11.064;2022-12-29T14:39:39;47.10;;;28.90;;
68744;SDS011;66104;45.456;11.064;2022-12-29T14:42:19;47.50;;;27.50;;
68744;SDS011;66104;45.456;11.064;2022-12-29T14:45:00;49.40;;;27.80;;
68744;SDS011;66104;45.456;11.064;2022-12-29T14:47:43;46.60;;;26.40;;
68744;SDS011;66104;45.456;11.064;2022-12-29T14:50:25;45.40;;;25.30;;
68744;SDS011;66104;45.456;11.064;2022-12-29T14:53:39;40.10;;;24.10;;
68744;SDS011;66104;45.456;11.064;2022-12-29T14:56:18;41.60;;;25.60;;
68744;SDS011;66104;45.456;11.064;2022-12-29T14:59:00;43.60;;;26.40;;
68744;SDS011;66104;45.456;11.064;2022-12-29T15:01:42;45.90;;;27.60;;
68744;SDS011;66104;45.456;11.064;2022-12-29T15:04:23;43.50;;;26.50;;
68744;SDS011;66104;45.456;11.064;2022-12-29T15:07:09;45.30;;;26.70;;
68744;SDS011;66104;45.456;11.064;2022-12-29T15:09:53;44.20;;;25.80;;
68744;SDS011;66104;45.456;11.064;2022-12-29T15:12:37;43.10;;;24.90;;
68744;SDS011;66104;45.456;11.064;2022-12-29T15:15:25;44.90;;;26.30;;
68744;SDS011;66104;45.456;11.064;2022-12-29T15:18:20;48.50;;;27.70;;
68744;SDS011;66104;45.456;11.064;2022-12-29T15:21:02;51.50;;;29.40;;
68744;SDS011;66104;45.456;11.064;2022-12-29T15:23:40;45.50;;;27.50;;
68744;SDS011;66104;45.456;11.064;2022-12-29T15:26:18;43.20;;;26.70;;
68744;SDS011;66104;45.456;11.064;2022-12-29T15:28:56;42.50;;;25.70;;
68744;SDS011;66104;45.456;11.064;2022-12-29T15:31:33;46.00;;;27.20;;
68744;SDS011;66104;45.456;11.064;2022-12-29T15:34:22;47.00;;;27.00;;
68744;SDS011;66104;45.456;11.064;2022-12-29T15:37:08;48.60;;;29.90;;
68744;SDS011;66104;45.456;11.064;2022-12-29T15:39:51;47.80;;;28.20;;
68744;SDS011;66104;45.456;11.064;2022-12-29T15:42:47;48.30;;;28.10;;
68744;SDS011;66104;45.456;11.064;2022-12-29T15:45:35;51.40;;;29.90;;
68744;SDS011;66104;45.456;11.064;2022-12-29T15:48:18;42.40;;;26.70;;
68744;SDS011;66104;45.456;11.064;2022-12-29T15:50:56;49.30;;;28.20;;
68744;SDS011;66104;45.456;11.064;2022-12-29T15:53:34;48.30;;;27.20;;
68744;SDS011;66104;45.456;11.064;2022-12-29T15:56:12;48.30;;;29.90;;